sensor_id;sensor_type;location;lat;lon;timestamp;P1;durP1;ratioP1;P2;durP2;ratioP2
76837;SDS011;65797;47.352;8.164;2023-05-19T00:01:39;2.70;;;1.90;;
76837;SDS011;65797;47.352;8.164;2023-05-19T00:04:08;3.43;;;2.00;;
76837;SDS011;65797;47.352;8.164;2023-05-19T00:06:34;9.80;;;2.43;;
76837;SDS011;65797;47.352;8.164;2023-05-19T00:09:04;3.50;;;1.77;;
76837;SDS011;65797;47.352;8.164;2023-05-19T00:11:32;3.10;;;1.77;;
76837;SDS011;65797;47.352;8.164;2023-05-19T00:14:02;7.40;;;2.23;;
76837;SDS011;65797;47.352;8.164;2023-05-19T00:16:33;5.40;;;2.20;;
76837;SDS011;65797;47.352;8.164;2023-05-19T00:19:00;2.17;;;1.90;;
76837;SDS011;65797;47.352;8.164;2023-05-19T00:21:27;4.63;;;2.17;;
76837;SDS011;65797;47.352;8.164;2023-05-19T00:23:53;3.67;;;1.80;;
76837;SDS011;65797;47.352;8.164;2023-05-19T00:26:20;2.00;;;1.80;;
76837;SDS011;65797;47.352;8.164;2023-05-19T00:28:46;3.70;;;1.70;;
76837;SDS011;65797;47.352;8.164;2023-05-19T00:31:13;5.47;;;2.13;;
76837;SDS011;65797;47.352;8.164;2023-05-19T00:33:39;5.03;;;2.23;;
76837;SDS011;65797;47.352;8.164;2023-05-19T00:36:04;4.97;;;1.97;;
76837;SDS011;65797;47.352;8.164;2023-05-19T00:38:31;4.10;;;2.13;;
76837;SDS011;65797;47.352;8.164;2023-05-19T00:40:57;3.40;;;2.50;;
76837;SDS011;65797;47.352;8.164;2023-05-19T00:43:24;2.43;;;2.00;;
76837;SDS011;65797;47.352;8.164;2023-05-19T00:45:50;10.20;;;2.20;;
76837;SDS011;65797;47.352;8.164;2023-05-19T00:48:16;4.17;;;2.13;;
76837;SDS011;65797;47.352;8.164;2023-05-19T00:50:42;4.27;;;2.17;;
76837;SDS011;65797;47.352;8.164;2023-05-19T00:53:08;6.03;;;2.40;;
76837;SDS011;65797;47.352;8.164;2023-05-19T00:55:36;2.20;;;1.70;;
76837;SDS011;65797;47.352;8.164;2023-05-19T00:58:04;2.40;;;2.07;;
76837;SDS011;65797;47.352;8.164;2023-05-19T01:00:31;2.20;;;1.77;;
76837;SDS011;65797;47.352;8.164;2023-05-19T01:02:57;2.17;;;2.00;;
76837;SDS011;65797;47.352;8.164;2023-05-19T01:05:23;2.37;;;2.00;;
76837;SDS011;65797;47.352;8.164;2023-05-19T01:07:49;2.10;;;1.60;;
76837;SDS011;65797;47.352;8.164;2023-05-19T01:10:17;2.77;;;2.20;;
76837;SDS011;65797;47.352;8.164;2023-05-19T01:12:44;5.13;;;2.30;;
76837;SDS011;65797;47.352;8.164;2023-05-19T01:15:10;3.87;;;2.33;;
76837;SDS011;65797;47.352;8.164;2023-05-19T01:17:44;3.57;;;2.20;;
76837;SDS011;65797;47.352;8.164;2023-05-19T01:20:26;3.23;;;2.27;;
76837;SDS011;65797;47.352;8.164;2023-05-19T01:23:20;5.80;;;2.47;;
76837;SDS011;65797;47.352;8.164;2023-05-19T01:31:12;7.80;;;2.00;;
76837;SDS011;65797;47.352;8.164;2023-05-19T01:33:39;9.43;;;2.83;;
76837;SDS011;65797;47.352;8.164;2023-05-19T01:36:07;3.03;;;2.00;;
76837;SDS011;65797;47.352;8.164;2023-05-19T01:38:37;4.97;;;2.10;;
76837;SDS011;65797;47.352;8.164;2023-05-19T01:41:03;1.97;;;1.77;;
76837;SDS011;65797;47.352;8.164;2023-05-19T01:43:30;3.00;;;2.13;;
76837;SDS011;65797;47.352;8.164;2023-05-19T01:45:58;3.47;;;2.40;;
76837;SDS011;65797;47.352;8.164;2023-05-19T01:48:25;2.87;;;2.10;;
76837;SDS011;65797;47.352;8.164;2023-05-19T01:50:52;4.43;;;2.23;;
76837;SDS011;65797;47.352;8.164;2023-05-19T01:53:21;2.30;;;2.10;;
76837;SDS011;65797;47.352;8.164;2023-05-19T01:55:48;4.87;;;2.67;;
76837;SDS011;65797;47.352;8.164;2023-05-19T01:58:30;4.20;;;2.00;;
76837;SDS011;65797;47.352;8.164;2023-05-19T02:03:52;5.50;;;2.33;;
76837;SDS011;65797;47.352;8.164;2023-05-19T02:06:45;4.40;;;2.40;;
76837;SDS011;65797;47.352;8.164;2023-05-19T02:09:22;5.30;;;2.40;;
76837;SDS011;65797;47.352;8.164;2023-05-19T02:12:36;6.20;;;3.17;;
76837;SDS011;65797;47.352;8.164;2023-05-19T02:15:03;5.93;;;2.37;;
76837;SDS011;65797;47.352;8.164;2023-05-19T02:17:32;7.27;;;2.10;;
76837;SDS011;65797;47.352;8.164;2023-05-19T02:20:01;4.47;;;2.80;;
76837;SDS011;65797;47.352;8.164;2023-05-19T02:22:30;2.53;;;1.97;;
76837;SDS011;65797;47.352;8.164;2023-05-19T02:24:56;2.47;;;1.80;;
76837;SDS011;65797;47.352;8.164;2023-05-19T02:27:22;7.47;;;2.30;;
76837;SDS011;65797;47.352;8.164;2023-05-19T02:29:48;3.43;;;2.60;;
76837;SDS011;65797;47.352;8.164;2023-05-19T02:32:14;2.80;;;1.80;;
76837;SDS011;65797;47.352;8.164;2023-05-19T02:34:40;4.50;;;2.60;;
76837;SDS011;65797;47.352;8.164;2023-05-19T02:37:10;5.50;;;2.60;;
76837;SDS011;65797;47.352;8.164;2023-05-19T02:39:37;3.40;;;2.30;;
76837;SDS011;65797;47.352;8.164;2023-05-19T02:42:03;5.40;;;2.10;;
76837;SDS011;65797;47.352;8.164;2023-05-19T02:44:29;5.90;;;3.07;;
76837;SDS011;65797;47.352;8.164;2023-05-19T02:46:55;6.53;;;2.30;;
76837;SDS011;65797;47.352;8.164;2023-05-19T02:49:20;5.30;;;2.30;;
76837;SDS011;65797;47.352;8.164;2023-05-19T02:51:46;3.33;;;2.13;;
76837;SDS011;65797;47.352;8.164;2023-05-19T02:54:12;8.17;;;2.27;;
76837;SDS011;65797;47.352;8.164;2023-05-19T02:56:37;3.40;;;1.97;;
76837;SDS011;65797;47.352;8.164;2023-05-19T02:59:03;4.47;;;2.00;;
76837;SDS011;65797;47.352;8.164;2023-05-19T03:01:30;4.30;;;2.10;;
76837;SDS011;65797;47.352;8.164;2023-05-19T03:03:56;4.10;;;2.07;;
76837;SDS011;65797;47.352;8.164;2023-05-19T03:06:22;4.47;;;2.43;;
76837;SDS011;65797;47.352;8.164;2023-05-19T03:08:48;3.77;;;2.27;;
76837;SDS011;65797;47.352;8.164;2023-05-19T03:11:15;2.30;;;2.00;;
76837;SDS011;65797;47.352;8.164;2023-05-19T03:13:41;1.90;;;1.80;;
76837;SDS011;65797;47.352;8.164;2023-05-19T03:16:10;3.20;;;1.87;;
76837;SDS011;65797;47.352;8.164;2023-05-19T03:18:36;3.73;;;2.40;;
76837;SDS011;65797;47.352;8.164;2023-05-19T03:21:02;2.13;;;1.90;;
76837;SDS011;65797;47.352;8.164;2023-05-19T03:23:28;4.60;;;1.90;;
76837;SDS011;65797;47.352;8.164;2023-05-19T03:25:53;6.53;;;2.60;;
76837;SDS011;65797;47.352;8.164;2023-05-19T03:28:20;2.70;;;2.00;;
76837;SDS011;65797;47.352;8.164;2023-05-19T03:30:47;7.73;;;1.93;;
76837;SDS011;65797;47.352;8.164;2023-05-19T03:33:16;6.03;;;2.00;;
76837;SDS011;65797;47.352;8.164;2023-05-19T03:35:41;2.80;;;2.50;;
76837;SDS011;65797;47.352;8.164;2023-05-19T03:38:08;7.93;;;2.17;;
76837;SDS011;65797;47.352;8.164;2023-05-19T03:40:34;3.93;;;2.00;;
76837;SDS011;65797;47.352;8.164;2023-05-19T03:42:59;2.33;;;1.77;;
76837;SDS011;65797;47.352;8.164;2023-05-19T03:45:25;3.63;;;2.40;;
76837;SDS011;65797;47.352;8.164;2023-05-19T03:47:51;3.27;;;2.03;;
76837;SDS011;65797;47.352;8.164;2023-05-19T03:50:17;3.67;;;2.57;;
76837;SDS011;65797;47.352;8.164;2023-05-19T03:52:43;3.30;;;2.17;;
76837;SDS011;65797;47.352;8.164;2023-05-19T03:55:10;3.20;;;2.00;;
76837;SDS011;65797;47.352;8.164;2023-05-19T03:57:36;2.80;;;1.93;;
76837;SDS011;65797;47.352;8.164;2023-05-19T04:00:02;5.63;;;2.80;;
76837;SDS011;65797;47.352;8.164;2023-05-19T04:02:33;4.93;;;1.90;;
76837;SDS011;65797;47.352;8.164;2023-05-19T04:04:58;4.23;;;1.97;;
76837;SDS011;65797;47.352;8.164;2023-05-19T04:07:24;1.67;;;1.57;;
76837;SDS011;65797;47.352;8.164;2023-05-19T04:09:50;7.57;;;1.80;;
76837;SDS011;65797;47.352;8.164;2023-05-19T04:12:16;3.17;;;1.80;;
76837;SDS011;65797;47.352;8.164;2023-05-19T04:14:41;4.23;;;1.93;;
76837;SDS011;65797;47.352;8.164;2023-05-19T04:17:07;3.90;;;1.80;;
76837;SDS011;65797;47.352;8.164;2023-05-19T04:19:33;4.37;;;2.17;;
76837;SDS011;65797;47.352;8.164;2023-05-19T04:21:58;7.73;;;2.03;;
76837;SDS011;65797;47.352;8.164;2023-05-19T04:24:25;3.87;;;2.30;;
76837;SDS011;65797;47.352;8.164;2023-05-19T04:26:50;4.67;;;2.40;;
76837;SDS011;65797;47.352;8.164;2023-05-19T04:29:17;6.03;;;1.83;;
76837;SDS011;65797;47.352;8.164;2023-05-19T04:31:46;4.03;;;2.23;;
76837;SDS011;65797;47.352;8.164;2023-05-19T04:34:12;3.73;;;2.27;;
76837;SDS011;65797;47.352;8.164;2023-05-19T04:36:38;4.33;;;2.47;;
76837;SDS011;65797;47.352;8.164;2023-05-19T04:39:04;3.43;;;2.20;;
76837;SDS011;65797;47.352;8.164;2023-05-19T04:41:36;3.63;;;2.00;;
76837;SDS011;65797;47.352;8.164;2023-05-19T04:44:04;3.40;;;1.93;;
76837;SDS011;65797;47.352;8.164;2023-05-19T04:49:08;3.60;;;2.10;;
76837;SDS011;65797;47.352;8.164;2023-05-19T04:51:36;5.23;;;2.10;;
76837;SDS011;65797;47.352;8.164;2023-05-19T05:07:02;2.80;;;1.90;;
76837;SDS011;65797;47.352;8.164;2023-05-19T05:09:27;2.80;;;2.20;;
76837;SDS011;65797;47.352;8.164;2023-05-19T05:11:53;4.03;;;2.53;;
76837;SDS011;65797;47.352;8.164;2023-05-19T05:14:19;4.40;;;2.10;;
76837;SDS011;65797;47.352;8.164;2023-05-19T05:16:45;2.77;;;2.03;;
76837;SDS011;65797;47.352;8.164;2023-05-19T05:19:11;3.60;;;2.03;;
76837;SDS011;65797;47.352;8.164;2023-05-19T05:21:37;3.17;;;2.77;;
76837;SDS011;65797;47.352;8.164;2023-05-19T05:24:03;4.47;;;1.97;;
76837;SDS011;65797;47.352;8.164;2023-05-19T05:26:29;3.20;;;2.13;;
76837;SDS011;65797;47.352;8.164;2023-05-19T05:28:57;4.00;;;2.20;;
76837;SDS011;65797;47.352;8.164;2023-05-19T05:31:23;4.13;;;2.17;;
76837;SDS011;65797;47.352;8.164;2023-05-19T05:33:49;5.30;;;2.40;;
76837;SDS011;65797;47.352;8.164;2023-05-19T05:36:15;4.17;;;2.60;;
76837;SDS011;65797;47.352;8.164;2023-05-19T05:38:41;2.53;;;2.30;;
76837;SDS011;65797;47.352;8.164;2023-05-19T05:41:06;5.60;;;2.40;;
76837;SDS011;65797;47.352;8.164;2023-05-19T05:43:32;6.00;;;2.40;;
76837;SDS011;65797;47.352;8.164;2023-05-19T05:45:58;2.63;;;1.90;;
76837;SDS011;65797;47.352;8.164;2023-05-19T05:48:24;2.50;;;1.90;;
76837;SDS011;65797;47.352;8.164;2023-05-19T05:50:50;3.93;;;2.00;;
76837;SDS011;65797;47.352;8.164;2023-05-19T05:53:17;2.33;;;2.10;;
76837;SDS011;65797;47.352;8.164;2023-05-19T05:55:47;2.90;;;2.40;;
76837;SDS011;65797;47.352;8.164;2023-05-19T05:58:13;3.17;;;2.50;;
76837;SDS011;65797;47.352;8.164;2023-05-19T06:00:41;3.43;;;2.03;;
76837;SDS011;65797;47.352;8.164;2023-05-19T06:05:47;5.20;;;2.47;;
76837;SDS011;65797;47.352;8.164;2023-05-19T06:08:13;2.97;;;2.30;;
76837;SDS011;65797;47.352;8.164;2023-05-19T06:10:39;5.40;;;2.83;;
76837;SDS011;65797;47.352;8.164;2023-05-19T06:13:07;4.73;;;2.50;;
76837;SDS011;65797;47.352;8.164;2023-05-19T06:15:32;5.17;;;2.90;;
76837;SDS011;65797;47.352;8.164;2023-05-19T06:17:58;3.47;;;2.70;;
76837;SDS011;65797;47.352;8.164;2023-05-19T06:20:24;3.20;;;1.93;;
76837;SDS011;65797;47.352;8.164;2023-05-19T06:33:10;8.93;;;2.97;;
76837;SDS011;65797;47.352;8.164;2023-05-19T06:35:36;3.00;;;2.63;;
76837;SDS011;65797;47.352;8.164;2023-05-19T06:38:04;4.43;;;2.80;;
76837;SDS011;65797;47.352;8.164;2023-05-19T06:40:30;3.50;;;3.17;;
76837;SDS011;65797;47.352;8.164;2023-05-19T06:42:56;3.00;;;2.60;;
76837;SDS011;65797;47.352;8.164;2023-05-19T06:45:22;2.87;;;2.57;;
76837;SDS011;65797;47.352;8.164;2023-05-19T06:47:48;3.27;;;2.97;;
76837;SDS011;65797;47.352;8.164;2023-05-19T06:50:13;3.43;;;3.07;;
76837;SDS011;65797;47.352;8.164;2023-05-19T06:52:39;4.30;;;3.30;;
76837;SDS011;65797;47.352;8.164;2023-05-19T06:55:05;10.83;;;2.83;;
76837;SDS011;65797;47.352;8.164;2023-05-19T06:57:31;5.80;;;3.00;;
76837;SDS011;65797;47.352;8.164;2023-05-19T06:59:57;2.87;;;2.60;;
76837;SDS011;65797;47.352;8.164;2023-05-19T07:02:22;4.90;;;3.50;;
76837;SDS011;65797;47.352;8.164;2023-05-19T07:04:48;6.67;;;3.10;;
76837;SDS011;65797;47.352;8.164;2023-05-19T07:07:16;9.00;;;3.63;;
76837;SDS011;65797;47.352;8.164;2023-05-19T07:09:42;12.90;;;3.13;;
76837;SDS011;65797;47.352;8.164;2023-05-19T07:12:07;3.10;;;2.57;;
76837;SDS011;65797;47.352;8.164;2023-05-19T07:14:33;5.23;;;3.63;;
76837;SDS011;65797;47.352;8.164;2023-05-19T07:17:00;5.27;;;3.47;;
76837;SDS011;65797;47.352;8.164;2023-05-19T07:19:26;3.10;;;2.80;;
76837;SDS011;65797;47.352;8.164;2023-05-19T07:21:52;2.90;;;2.60;;
76837;SDS011;65797;47.352;8.164;2023-05-19T07:24:19;3.73;;;2.97;;
76837;SDS011;65797;47.352;8.164;2023-05-19T07:26:45;7.03;;;2.80;;
76837;SDS011;65797;47.352;8.164;2023-05-19T07:29:11;7.03;;;3.60;;
76837;SDS011;65797;47.352;8.164;2023-05-19T07:31:36;4.00;;;3.10;;
76837;SDS011;65797;47.352;8.164;2023-05-19T07:34:02;5.33;;;2.63;;
76837;SDS011;65797;47.352;8.164;2023-05-19T07:36:28;8.03;;;3.20;;
76837;SDS011;65797;47.352;8.164;2023-05-19T07:38:55;3.33;;;3.03;;
76837;SDS011;65797;47.352;8.164;2023-05-19T07:41:21;3.53;;;3.20;;
76837;SDS011;65797;47.352;8.164;2023-05-19T07:43:47;6.10;;;2.30;;
76837;SDS011;65797;47.352;8.164;2023-05-19T07:46:13;8.60;;;3.13;;
76837;SDS011;65797;47.352;8.164;2023-05-19T07:48:38;6.13;;;3.07;;
76837;SDS011;65797;47.352;8.164;2023-05-19T07:51:04;5.47;;;2.90;;
76837;SDS011;65797;47.352;8.164;2023-05-19T07:53:34;3.33;;;3.03;;
76837;SDS011;65797;47.352;8.164;2023-05-19T07:56:02;5.13;;;3.10;;
76837;SDS011;65797;47.352;8.164;2023-05-19T07:58:28;5.33;;;3.40;;
76837;SDS011;65797;47.352;8.164;2023-05-19T08:00:58;9.70;;;2.17;;
76837;SDS011;65797;47.352;8.164;2023-05-19T08:03:24;4.00;;;2.47;;
76837;SDS011;65797;47.352;8.164;2023-05-19T08:05:50;7.47;;;3.73;;
76837;SDS011;65797;47.352;8.164;2023-05-19T08:08:16;5.53;;;3.33;;
76837;SDS011;65797;47.352;8.164;2023-05-19T08:10:43;4.17;;;3.10;;
76837;SDS011;65797;47.352;8.164;2023-05-19T08:13:09;5.60;;;3.00;;
76837;SDS011;65797;47.352;8.164;2023-05-19T08:15:35;5.73;;;3.37;;
76837;SDS011;65797;47.352;8.164;2023-05-19T08:18:01;12.33;;;3.87;;
76837;SDS011;65797;47.352;8.164;2023-05-19T08:20:29;6.33;;;3.00;;
76837;SDS011;65797;47.352;8.164;2023-05-19T08:25:30;4.10;;;3.20;;
76837;SDS011;65797;47.352;8.164;2023-05-19T08:27:56;5.90;;;3.30;;
76837;SDS011;65797;47.352;8.164;2023-05-19T08:30:22;4.33;;;3.40;;
76837;SDS011;65797;47.352;8.164;2023-05-19T08:32:48;9.10;;;3.67;;
76837;SDS011;65797;47.352;8.164;2023-05-19T08:35:16;4.43;;;2.90;;
76837;SDS011;65797;47.352;8.164;2023-05-19T08:37:42;4.40;;;2.73;;
76837;SDS011;65797;47.352;8.164;2023-05-19T08:40:08;6.03;;;3.03;;
76837;SDS011;65797;47.352;8.164;2023-05-19T08:50:28;3.70;;;3.00;;
76837;SDS011;65797;47.352;8.164;2023-05-19T08:53:12;9.67;;;3.63;;
76837;SDS011;65797;47.352;8.164;2023-05-19T09:30:14;10.90;;;3.87;;
76837;SDS011;65797;47.352;8.164;2023-05-19T09:37:54;9.87;;;4.20;;
76837;SDS011;65797;47.352;8.164;2023-05-19T09:40:20;6.90;;;3.97;;
76837;SDS011;65797;47.352;8.164;2023-05-19T09:42:45;10.63;;;4.63;;
76837;SDS011;65797;47.352;8.164;2023-05-19T10:13:42;6.50;;;3.97;;
76837;SDS011;65797;47.352;8.164;2023-05-19T13:39:28;4.93;;;3.73;;
76837;SDS011;65797;47.352;8.164;2023-05-19T13:41:54;10.00;;;4.23;;
76837;SDS011;65797;47.352;8.164;2023-05-19T13:44:22;7.40;;;3.60;;
76837;SDS011;65797;47.352;8.164;2023-05-19T13:46:49;9.13;;;3.87;;
76837;SDS011;65797;47.352;8.164;2023-05-19T14:59:10;5.23;;;4.40;;
76837;SDS011;65797;47.352;8.164;2023-05-19T15:01:35;4.37;;;3.17;;
76837;SDS011;65797;47.352;8.164;2023-05-19T17:52:28;7.47;;;4.60;;
